Time;durP1;ratioP1;P1;durP2;ratioP2;P2;SDS_P1;SDS_P2;PMS_P1;PMS_P2;Temp;Humidity;BMP_temperature;BMP_pressure;BME280_temperature;BME280_humidity;BME280_pressure;Samples;Min_cycle;Max_cycle;Signal;HPM_P1;HPM_P2
2023/10/14 00:01:10;;;;;;;11.00;10.70;;;19.80;99.90;;;;;;5069906;28;20498;-68
2023/10/14 00:03:41;;;;;;;10.67;10.47;;;19.80;99.90;;;;;;5069491;28;20886;-69
2023/10/14 00:06:08;;;;;;;10.50;10.30;;;19.80;99.90;;;;;;5077587;28;20467;-69
2023/10/14 00:08:35;;;;;;;10.40;10.20;;;19.60;99.90;;;;;;5075346;28;20876;-68
2023/10/14 00:11:05;;;;;;;10.63;10.43;;;19.40;99.90;;;;;;5072837;28;20459;-68
2023/10/14 00:13:40;;;;;;;10.07;9.87;;;19.40;99.90;;;;;;5079695;28;20462;-68
2023/10/14 00:19:04;;;;;;;10.03;9.83;;;19.20;99.90;;;;;;5085250;28;20457;-68
2023/10/14 00:21:34;;;;;;;9.50;9.30;;;19.10;99.90;;;;;;5075305;28;20490;-68
2023/10/14 00:24:03;;;;;;;8.40;8.30;;;19.10;99.90;;;;;;5075968;28;20829;-69
2023/10/14 00:26:31;;;;;;;8.10;8.00;;;19.00;99.90;;;;;;5071555;28;20457;-68
2023/10/14 00:29:16;;;;;;;7.70;7.60;;;18.80;99.90;;;;;;5074722;28;20795;-67
2023/10/14 00:31:47;;;;;;;7.53;7.43;;;18.80;99.90;;;;;;5071313;28;20469;-69
2023/10/14 00:34:15;;;;;;;7.20;7.10;;;18.70;99.90;;;;;;5071765;28;20466;-68
2023/10/14 00:36:42;;;;;;;7.10;7.00;;;18.60;99.90;;;;;;5075912;28;20528;-67
2023/10/14 00:39:13;;;;;;;6.90;6.80;;;18.50;99.90;;;;;;5074404;28;20536;-69
2023/10/14 00:41:42;;;;;;;6.90;6.80;;;18.50;99.90;;;;;;5085187;28;20813;-68
2023/10/14 00:44:10;;;;;;;6.80;6.70;;;18.50;99.90;;;;;;5080957;28;20454;-68
2023/10/14 00:46:42;;;;;;;6.40;6.30;;;18.40;99.90;;;;;;5081618;28;21357;-68
2023/10/14 00:49:11;;;;;;;6.17;6.07;;;18.40;99.90;;;;;;5075476;28;20478;-68
2023/10/14 00:51:42;;;;;;;6.50;6.40;;;18.40;99.90;;;;;;5072036;28;20458;-68
2023/10/14 00:54:12;;;;;;;6.47;6.37;;;18.40;99.90;;;;;;5077109;28;20458;-68
2023/10/14 00:56:41;;;;;;;6.53;6.43;;;18.50;99.90;;;;;;5081180;28;20466;-68
2023/10/14 00:59:10;;;;;;;6.90;6.80;;;18.50;99.90;;;;;;5087702;28;20525;-68
2023/10/14 01:01:55;;;;;;;7.00;6.90;;;18.40;99.90;;;;;;5078238;28;20491;-68
2023/10/14 01:04:32;;;;;;;7.30;7.20;;;18.50;99.90;;;;;;5068373;28;20471;-67
2023/10/14 01:07:04;;;;;;;7.20;7.10;;;18.50;99.90;;;;;;5078381;28;20461;-68
2023/10/14 01:09:52;;;;;;;6.60;6.50;;;18.50;99.90;;;;;;5081024;28;20496;-68
2023/10/14 01:12:23;;;;;;;6.20;6.10;;;18.50;99.90;;;;;;5074480;28;20549;-68
2023/10/14 01:14:52;;;;;;;8.80;8.70;;;18.40;99.90;;;;;;5076279;28;20455;-68
2023/10/14 01:17:26;;;;;;;13.37;12.87;;;18.20;99.90;;;;;;5086744;28;20846;-66
2023/10/14 01:19:59;;;;;;;11.93;11.53;;;17.80;99.90;;;;;;5081144;28;20543;-66
2023/10/14 01:22:29;;;;;;;10.50;10.30;;;17.40;99.90;;;;;;5075736;28;20496;-67
2023/10/14 01:24:56;;;;;;;8.60;8.50;;;17.10;99.90;;;;;;5071932;28;20462;-67
2023/10/14 01:27:25;;;;;;;8.43;8.33;;;16.90;99.90;;;;;;5074091;28;20466;-68
2023/10/14 01:29:53;;;;;;;7.27;7.17;;;16.80;99.90;;;;;;5077611;28;20457;-68
2023/10/14 01:32:36;;;;;;;5.80;5.70;;;16.60;99.90;;;;;;5087816;28;20818;-68
2023/10/14 01:35:13;;;;;;;4.17;4.17;;;16.50;99.90;;;;;;5080844;28;20856;-68
2023/10/14 01:37:44;;;;;;;3.40;3.40;;;16.30;99.90;;;;;;5073528;28;20482;-68
2023/10/14 01:40:24;;;;;;;4.00;4.00;;;16.20;99.90;;;;;;5068214;28;20573;-68
2023/10/14 01:42:56;;;;;;;4.33;4.33;;;16.00;99.90;;;;;;5082292;28;20458;-69
2023/10/14 01:45:27;;;;;;;6.20;6.10;;;15.90;99.90;;;;;;5074589;28;20555;-69
2023/10/14 01:48:11;;;;;;;5.60;5.50;;;15.70;99.90;;;;;;5090951;28;20457;-67
2023/10/14 01:50:39;;;;;;;6.40;6.30;;;15.60;99.90;;;;;;5077626;28;20472;-67
2023/10/14 01:53:10;;;;;;;6.47;6.37;;;15.50;99.90;;;;;;5081833;28;20933;-68
2023/10/14 01:55:40;;;;;;;5.87;5.77;;;15.30;99.90;;;;;;5079270;28;20474;-68
2023/10/14 01:58:10;;;;;;;5.00;5.00;;;15.20;99.90;;;;;;5081091;28;21018;-68
2023/10/14 02:00:39;;;;;;;6.70;6.60;;;15.00;99.90;;;;;;5070542;28;20484;-68
2023/10/14 02:03:07;;;;;;;7.20;7.10;;;14.90;99.90;;;;;;5078359;28;20451;-68
2023/10/14 02:05:40;;;;;;;6.23;6.13;;;14.70;99.90;;;;;;5077732;28;20454;-69
2023/10/14 02:08:14;;;;;;;5.57;5.47;;;14.60;99.90;;;;;;5073892;28;20558;-69
2023/10/14 02:10:46;;;;;;;5.40;5.30;;;14.50;99.90;;;;;;5071026;28;20454;-69
2023/10/14 02:13:16;;;;;;;5.43;5.33;;;14.50;99.90;;;;;;5083173;28;20462;-69
2023/10/14 02:15:46;;;;;;;5.23;5.13;;;14.30;99.90;;;;;;5086015;28;20565;-69
2023/10/14 02:18:15;;;;;;;5.67;5.57;;;14.20;99.90;;;;;;5082443;28;20458;-69
2023/10/14 02:20:56;;;;;;;6.03;5.93;;;14.00;99.90;;;;;;5078013;28;20485;-69
2023/10/14 02:23:26;;;;;;;6.30;6.20;;;13.90;99.90;;;;;;5078799;28;20949;-69
2023/10/14 02:25:57;;;;;;;6.63;6.53;;;13.90;99.90;;;;;;5087430;28;20500;-71
2023/10/14 02:28:24;;;;;;;6.53;6.43;;;13.90;99.90;;;;;;5076037;28;20466;-71
2023/10/14 02:30:52;;;;;;;6.53;6.43;;;13.90;99.90;;;;;;5081144;28;20454;-70
2023/10/14 02:33:19;;;;;;;7.50;7.40;;;14.00;99.90;;;;;;5079460;28;20462;-69
2023/10/14 02:35:46;;;;;;;7.37;7.27;;;14.10;99.90;;;;;;5070147;28;20463;-68
2023/10/14 02:38:13;;;;;;;7.97;7.87;;;14.10;99.90;;;;;;5084545;28;20535;-71
2023/10/14 02:40:42;;;;;;;7.23;7.13;;;14.10;99.90;;;;;;5080161;28;20475;-71
2023/10/14 02:43:08;;;;;;;8.53;8.43;;;14.10;99.90;;;;;;5073367;28;20467;-69
2023/10/14 02:45:41;;;;;;;8.10;8.00;;;14.00;99.90;;;;;;5071779;28;20487;-69
2023/10/14 02:48:11;;;;;;;8.50;8.40;;;14.10;99.90;;;;;;5084527;28;20540;-71
2023/10/14 02:50:38;;;;;;;8.50;8.40;;;14.10;99.90;;;;;;5080605;28;20512;-70
2023/10/14 02:53:07;;;;;;;8.50;8.40;;;14.10;99.90;;;;;;5075067;28;20454;-69
2023/10/14 02:58:20;;;;;;;8.23;8.13;;;14.10;99.90;;;;;;5079478;28;20461;-70
2023/10/14 03:00:49;;;;;;;8.30;8.20;;;14.00;99.90;;;;;;5081074;28;20511;-69
2023/10/14 03:03:19;;;;;;;8.40;8.30;;;14.00;99.90;;;;;;5069019;28;20475;-69
2023/10/14 03:05:51;;;;;;;9.20;9.00;;;13.70;99.90;;;;;;5077768;28;20481;-70
2023/10/14 03:08:19;;;;;;;8.50;8.40;;;13.40;99.90;;;;;;5083835;28;20450;-69
2023/10/14 03:10:54;;;;;;;8.63;8.53;;;13.40;99.90;;;;;;5084825;28;20540;-68
2023/10/14 03:13:23;;;;;;;9.10;8.93;;;13.30;99.90;;;;;;5081667;28;20545;-70
2023/10/14 03:15:52;;;;;;;8.60;8.50;;;13.30;99.90;;;;;;5072947;28;20455;-69
2023/10/14 03:18:21;;;;;;;8.40;8.30;;;13.30;99.90;;;;;;5080908;28;20520;-70
2023/10/14 03:21:00;;;;;;;7.97;7.87;;;13.30;99.90;;;;;;5084212;28;20482;-69
2023/10/14 03:23:28;;;;;;;8.60;8.50;;;13.20;99.90;;;;;;5072120;28;20781;-68
2023/10/14 03:26:05;;;;;;;8.90;8.80;;;13.10;99.90;;;;;;5067924;28;20466;-70
2023/10/14 03:28:37;;;;;;;9.63;9.43;;;13.10;99.90;;;;;;5081071;28;20507;-69
2023/10/14 03:31:08;;;;;;;9.60;9.40;;;13.00;99.90;;;;;;5082371;28;20968;-69
2023/10/14 03:33:43;;;;;;;9.50;9.30;;;13.00;99.90;;;;;;5082890;28;20507;-68
2023/10/14 03:36:15;;;;;;;11.77;11.47;;;13.00;99.90;;;;;;5076705;28;20478;-69
2023/10/14 03:38:46;;;;;;;12.20;11.90;;;12.50;99.90;;;;;;5070653;28;20473;-69
2023/10/14 03:41:18;;;;;;;11.43;11.13;;;12.10;99.90;;;;;;5088027;28;20501;-70
2023/10/14 03:43:54;;;;;;;11.27;10.97;;;12.00;99.90;;;;;;5070016;28;20950;-67
2023/10/14 03:46:29;;;;;;;10.60;10.40;;;12.00;99.90;;;;;;5085455;28;20465;-70
2023/10/14 03:48:57;;;;;;;10.70;10.50;;;12.00;99.90;;;;;;5088940;28;20971;-69
2023/10/14 03:51:25;;;;;;;10.80;10.60;;;12.00;99.90;;;;;;5075790;28;20469;-69
2023/10/14 03:53:54;;;;;;;10.43;10.23;;;12.10;99.90;;;;;;5080590;28;20454;-69
2023/10/14 03:56:25;;;;;;;10.57;10.37;;;12.20;99.90;;;;;;5075726;28;20548;-68
2023/10/14 03:58:57;;;;;;;10.83;10.63;;;12.20;99.90;;;;;;5077533;28;20494;-68
2023/10/14 04:01:28;;;;;;;9.90;9.70;;;12.20;99.90;;;;;;5080257;28;20494;-69
2023/10/14 04:03:55;;;;;;;11.07;10.83;;;12.30;99.90;;;;;;5075781;28;20458;-68
2023/10/14 04:06:23;;;;;;;10.30;10.10;;;12.30;99.90;;;;;;5085579;28;20462;-69
2023/10/14 04:08:50;;;;;;;10.47;10.27;;;12.30;99.90;;;;;;5081262;28;20949;-69
2023/10/14 04:11:25;;;;;;;9.57;9.37;;;12.40;99.90;;;;;;5072689;28;20455;-69
2023/10/14 04:14:04;;;;;;;9.57;9.37;;;12.40;99.90;;;;;;5070573;28;20462;-68
2023/10/14 04:16:47;;;;;;;9.50;9.30;;;12.40;99.90;;;;;;5079400;28;20656;-69
2023/10/14 04:19:27;;;;;;;9.53;9.33;;;12.40;99.90;;;;;;5073249;28;20497;-68
2023/10/14 04:21:58;;;;;;;9.33;9.13;;;12.40;99.90;;;;;;5084095;28;20581;-68
2023/10/14 04:24:43;;;;;;;8.97;8.83;;;12.40;99.90;;;;;;5076324;28;20461;-68
2023/10/14 04:30:03;;;;;;;9.23;9.03;;;12.40;99.90;;;;;;5070091;28;20469;-69
2023/10/14 04:32:41;;;;;;;8.90;8.80;;;12.30;99.90;;;;;;5077856;28;20462;-68
2023/10/14 04:35:09;;;;;;;7.67;7.57;;;12.40;99.90;;;;;;5069140;28;20528;-67
2023/10/14 04:37:50;;;;;;;7.33;7.23;;;12.30;99.90;;;;;;5073970;28;20494;-68
2023/10/14 04:40:35;;;;;;;7.97;7.87;;;12.30;99.90;;;;;;5073535;28;20497;-68
2023/10/14 04:43:03;;;;;;;7.63;7.53;;;12.20;99.90;;;;;;5076237;28;20459;-68
2023/10/14 04:45:32;;;;;;;7.53;7.43;;;12.10;99.90;;;;;;5073785;28;20486;-68
2023/10/14 04:47:59;;;;;;;9.00;8.90;;;12.00;99.90;;;;;;5077886;28;20959;-67
2023/10/14 04:50:26;;;;;;;8.00;7.90;;;12.00;99.90;;;;;;5071943;28;20870;-68
2023/10/14 04:52:53;;;;;;;9.10;8.90;;;11.90;99.90;;;;;;5080676;28;20450;-68
2023/10/14 04:55:27;;;;;;;9.20;9.00;;;11.80;99.90;;;;;;5074336;28;20541;-68
2023/10/14 05:00:52;;;;;;;9.53;9.33;;;11.60;99.90;;;;;;5053469;28;20466;-69
2023/10/14 05:03:22;;;;;;;9.70;9.50;;;11.50;99.90;;;;;;5062523;28;20473;-68
2023/10/14 05:05:52;;;;;;;9.77;9.57;;;11.40;99.90;;;;;;5071580;28;20467;-69
2023/10/14 05:08:22;;;;;;;10.50;10.30;;;11.40;99.90;;;;;;5079274;28;20446;-67
2023/10/14 05:10:51;;;;;;;10.70;10.50;;;11.30;99.90;;;;;;5071510;28;20889;-67
2023/10/14 05:13:25;;;;;;;10.50;10.30;;;11.30;99.90;;;;;;5067927;28;20489;-69
2023/10/14 05:16:00;;;;;;;11.63;11.33;;;11.20;99.90;;;;;;5079290;28;20493;-69
2023/10/14 05:18:30;;;;;;;11.30;11.00;;;11.10;99.90;;;;;;5081448;28;20469;-69
2023/10/14 05:21:03;;;;;;;11.70;11.40;;;11.10;99.90;;;;;;5082602;28;20617;-69
2023/10/14 05:23:37;;;;;;;11.40;11.10;;;11.10;99.90;;;;;;5078758;28;20565;-68
2023/10/14 05:26:06;;;;;;;11.13;10.83;;;11.00;99.90;;;;;;5073967;28;20831;-68
2023/10/14 05:28:36;;;;;;;11.40;11.10;;;11.00;99.90;;;;;;5077508;28;20467;-67
2023/10/14 05:31:08;;;;;;;12.00;11.70;;;11.00;99.90;;;;;;5077798;28;20461;-68
2023/10/14 05:33:34;;;;;;;11.83;11.53;;;11.00;99.90;;;;;;5070811;28;20920;-69
2023/10/14 05:36:02;;;;;;;12.00;11.70;;;11.00;99.90;;;;;;5071427;28;20477;-67
2023/10/14 05:38:29;;;;;;;11.53;11.23;;;11.00;99.90;;;;;;5080517;28;20457;-68
2023/10/14 05:40:59;;;;;;;11.60;11.30;;;10.90;99.90;;;;;;5075821;28;20466;-68
2023/10/14 05:43:26;;;;;;;12.13;11.83;;;10.90;99.90;;;;;;5072854;28;20880;-68
2023/10/14 05:45:54;;;;;;;11.60;11.30;;;10.90;99.90;;;;;;5081821;28;20531;-67
2023/10/14 05:48:27;;;;;;;11.83;11.53;;;11.00;99.90;;;;;;5077953;28;21002;-69
2023/10/14 05:50:56;;;;;;;11.97;11.67;;;11.10;99.90;;;;;;5076947;28;20893;-67
2023/10/14 05:53:26;;;;;;;12.13;11.83;;;11.10;99.90;;;;;;5079679;28;20499;-68
2023/10/14 05:56:09;;;;;;;12.30;12.00;;;11.00;99.90;;;;;;5068643;28;21038;-68
2023/10/14 05:58:37;;;;;;;12.53;12.20;;;11.10;99.90;;;;;;5081801;28;20822;-68
2023/10/14 06:01:08;;;;;;;12.70;12.30;;;11.00;99.90;;;;;;5087339;28;20457;-67
2023/10/14 06:03:39;;;;;;;12.90;12.50;;;10.90;99.90;;;;;;5073441;28;21108;-68
2023/10/14 06:06:09;;;;;;;12.67;12.27;;;10.90;99.90;;;;;;5083912;28;20795;-67
2023/10/14 06:08:37;;;;;;;13.10;12.70;;;10.90;99.90;;;;;;5086359;28;20470;-67
2023/10/14 06:11:05;;;;;;;12.83;12.43;;;10.90;99.90;;;;;;5072711;28;20447;-67
2023/10/14 06:13:32;;;;;;;12.80;12.40;;;10.90;99.90;;;;;;5072367;28;20853;-67
2023/10/14 06:16:00;;;;;;;12.50;12.17;;;10.90;99.90;;;;;;5076909;28;20524;-67
2023/10/14 06:18:29;;;;;;;12.60;12.20;;;10.90;99.90;;;;;;5078438;28;20539;-68
2023/10/14 06:20:59;;;;;;;13.27;12.87;;;10.90;99.90;;;;;;5077890;28;20536;-68
2023/10/14 06:23:27;;;;;;;13.10;12.70;;;10.80;99.90;;;;;;5076632;28;20472;-68
2023/10/14 06:25:54;;;;;;;13.20;12.80;;;10.80;99.90;;;;;;5075833;28;20454;-67
2023/10/14 06:28:22;;;;;;;12.67;12.27;;;10.80;99.90;;;;;;5071694;28;20458;-68
2023/10/14 06:30:49;;;;;;;12.23;11.93;;;10.70;99.90;;;;;;5084041;28;20458;-67
2023/10/14 06:33:16;;;;;;;13.10;12.70;;;10.70;99.90;;;;;;5087347;28;20537;-67
2023/10/14 06:35:43;;;;;;;12.77;12.37;;;10.70;99.90;;;;;;5071920;28;20476;-68
2023/10/14 06:38:17;;;;;;;13.00;12.60;;;10.70;99.90;;;;;;5079465;28;20457;-68
2023/10/14 06:40:44;;;;;;;12.70;12.30;;;10.70;99.90;;;;;;5074538;28;20827;-68
2023/10/14 06:43:13;;;;;;;13.10;12.70;;;10.60;99.90;;;;;;5072666;28;21028;-67
2023/10/14 06:45:40;;;;;;;12.27;11.97;;;10.70;99.90;;;;;;5080961;28;20481;-68
2023/10/14 06:48:10;;;;;;;12.20;11.90;;;10.70;99.90;;;;;;5075403;28;21049;-68
2023/10/14 06:50:38;;;;;;;11.63;11.33;;;10.70;99.90;;;;;;5077969;28;20877;-68
2023/10/14 06:53:08;;;;;;;11.83;11.53;;;10.70;99.90;;;;;;5080365;28;20466;-67
2023/10/14 06:55:39;;;;;;;11.77;11.47;;;10.70;99.90;;;;;;5078525;28;20467;-68
2023/10/14 06:58:07;;;;;;;11.30;11.00;;;10.70;99.90;;;;;;5081652;28;20868;-68
2023/10/14 07:00:37;;;;;;;11.13;10.83;;;10.80;99.90;;;;;;5081769;28;20809;-68
2023/10/14 07:03:07;;;;;;;10.40;10.20;;;10.80;99.90;;;;;;5074425;28;20486;-68
2023/10/14 07:05:43;;;;;;;9.90;9.70;;;10.80;99.90;;;;;;5080521;28;20457;-67
2023/10/14 07:08:11;;;;;;;9.70;9.50;;;10.80;99.90;;;;;;5075710;28;20465;-67
2023/10/14 07:10:39;;;;;;;9.87;9.67;;;10.80;99.90;;;;;;5081434;28;20849;-68
2023/10/14 07:13:08;;;;;;;8.97;8.80;;;10.80;99.90;;;;;;5078371;28;20470;-68
2023/10/14 07:15:37;;;;;;;9.43;9.23;;;10.90;99.90;;;;;;5082502;28;20961;-67
2023/10/14 07:18:05;;;;;;;9.17;8.97;;;10.90;99.90;;;;;;5083605;28;20482;-67
2023/10/14 07:20:33;;;;;;;9.07;8.87;;;10.90;99.90;;;;;;5076971;28;20553;-69
2023/10/14 07:23:02;;;;;;;8.93;8.77;;;11.00;99.90;;;;;;5068003;28;20497;-68
2023/10/14 07:25:33;;;;;;;8.50;8.40;;;11.00;99.90;;;;;;5073480;28;20463;-67
2023/10/14 07:28:07;;;;;;;7.97;7.87;;;11.00;99.90;;;;;;5080799;28;20468;-68
2023/10/14 07:30:36;;;;;;;8.07;7.97;;;11.00;99.90;;;;;;5079026;28;20823;-68
2023/10/14 07:33:06;;;;;;;7.57;7.47;;;11.10;99.90;;;;;;5074680;28;20454;-68
2023/10/14 07:35:33;;;;;;;7.57;7.47;;;11.10;99.90;;;;;;5075681;28;20501;-68
2023/10/14 07:38:00;;;;;;;7.40;7.30;;;11.10;99.90;;;;;;5083189;28;20470;-67
2023/10/14 07:40:30;;;;;;;7.07;6.97;;;11.20;99.90;;;;;;5075400;28;20977;-68
2023/10/14 07:43:00;;;;;;;7.33;7.23;;;11.20;99.90;;;;;;5072247;28;20589;-67
2023/10/14 07:45:29;;;;;;;7.47;7.37;;;11.20;99.90;;;;;;5076229;28;20475;-67
2023/10/14 07:47:57;;;;;;;7.17;7.07;;;11.10;99.90;;;;;;5083799;28;20450;-67
2023/10/14 07:50:24;;;;;;;6.87;6.77;;;11.20;99.90;;;;;;5071905;28;20463;-68
2023/10/14 07:52:54;;;;;;;7.00;6.90;;;11.20;99.90;;;;;;5072996;28;20849;-67
2023/10/14 07:55:25;;;;;;;6.63;6.53;;;11.20;99.90;;;;;;5083767;28;20465;-68
2023/10/14 07:57:55;;;;;;;7.00;6.90;;;11.30;99.90;;;;;;5081073;28;20471;-68
2023/10/14 08:00:36;;;;;;;7.50;7.40;;;11.40;99.90;;;;;;5080162;28;20461;-68
2023/10/14 08:03:06;;;;;;;7.17;7.07;;;11.40;99.90;;;;;;5086841;28;20493;-67
2023/10/14 08:05:38;;;;;;;7.03;6.93;;;11.40;99.90;;;;;;5072660;28;21017;-68
2023/10/14 08:08:07;;;;;;;7.90;7.80;;;11.50;99.90;;;;;;5077072;28;20537;-68
2023/10/14 08:10:34;;;;;;;7.77;7.67;;;11.50;99.90;;;;;;5073794;28;20546;-67
2023/10/14 08:13:04;;;;;;;8.27;8.17;;;11.60;99.90;;;;;;5067684;28;20972;-68
2023/10/14 08:15:31;;;;;;;8.20;8.10;;;11.70;99.90;;;;;;5072095;28;20450;-68
2023/10/14 08:18:00;;;;;;;8.10;8.00;;;11.70;99.90;;;;;;5071917;28;20473;-68
2023/10/14 08:20:30;;;;;;;8.40;8.30;;;11.80;99.90;;;;;;5085600;28;20489;-69
2023/10/14 08:22:58;;;;;;;8.50;8.40;;;11.80;99.90;;;;;;5074981;28;20493;-67
2023/10/14 08:25:26;;;;;;;8.10;8.00;;;11.80;99.90;;;;;;5076140;28;20868;-67
2023/10/14 08:27:54;;;;;;;8.70;8.60;;;11.90;99.90;;;;;;5074566;28;20458;-68
2023/10/14 08:30:24;;;;;;;8.93;8.73;;;11.90;99.90;;;;;;5083300;28;20491;-67
2023/10/14 08:32:52;;;;;;;8.53;8.43;;;11.90;99.90;;;;;;5080251;28;20551;-67
2023/10/14 08:35:20;;;;;;;9.20;9.00;;;12.00;99.90;;;;;;5083937;28;20458;-68
2023/10/14 08:37:49;;;;;;;9.90;9.70;;;12.00;99.90;;;;;;5070543;28;20482;-68
2023/10/14 08:40:19;;;;;;;9.90;9.70;;;12.00;99.90;;;;;;5077532;28;20450;-69
2023/10/14 08:42:51;;;;;;;10.07;9.87;;;12.10;99.90;;;;;;5067665;28;20509;-69
2023/10/14 08:45:21;;;;;;;10.07;9.87;;;12.10;99.90;;;;;;5081214;28;20474;-68
2023/10/14 08:47:51;;;;;;;9.90;9.70;;;12.20;99.90;;;;;;5077007;28;20877;-68
2023/10/14 08:50:21;;;;;;;9.87;9.67;;;12.30;99.90;;;;;;5067510;28;20997;-68
2023/10/14 08:52:53;;;;;;;9.63;9.43;;;12.30;99.90;;;;;;5065833;28;20470;-68
2023/10/14 08:55:21;;;;;;;10.37;10.17;;;12.40;99.90;;;;;;5072111;28;20491;-68
2023/10/14 08:57:48;;;;;;;9.93;9.73;;;12.40;99.90;;;;;;5076230;28;20466;-68
2023/10/14 09:00:20;;;;;;;11.03;10.73;;;12.50;99.90;;;;;;5078001;28;20980;-68
2023/10/14 09:02:51;;;;;;;10.67;10.47;;;12.50;99.90;;;;;;5086123;28;20573;-69
2023/10/14 09:05:18;;;;;;;11.20;10.90;;;12.50;99.90;;;;;;5075683;28;20891;-67
2023/10/14 09:07:48;;;;;;;11.10;10.80;;;12.60;99.90;;;;;;5079730;28;20797;-68
2023/10/14 09:10:20;;;;;;;11.77;11.47;;;12.70;99.90;;;;;;5075390;28;20458;-68
2023/10/14 09:13:00;;;;;;;11.63;11.33;;;12.80;99.90;;;;;;5083028;28;20461;-68
2023/10/14 09:15:28;;;;;;;11.70;11.40;;;12.90;99.90;;;;;;5087985;28;20450;-68
2023/10/14 09:17:56;;;;;;;11.80;11.50;;;13.00;99.90;;;;;;5071499;28;21004;-69
2023/10/14 09:20:29;;;;;;;12.20;11.90;;;13.00;99.90;;;;;;5079056;28;21049;-68
2023/10/14 09:23:17;;;;;;;12.23;11.93;;;13.10;99.90;;;;;;5078583;28;20513;-69
2023/10/14 09:25:49;;;;;;;13.17;12.77;;;13.20;99.90;;;;;;5075223;28;20451;-68
2023/10/14 09:28:17;;;;;;;13.00;12.60;;;13.10;99.90;;;;;;5080742;28;20619;-68
2023/10/14 09:30:46;;;;;;;12.93;12.53;;;13.30;99.90;;;;;;5081289;28;20476;-68
2023/10/14 09:33:16;;;;;;;13.10;12.70;;;13.20;99.90;;;;;;5081135;28;20528;-68
2023/10/14 09:35:48;;;;;;;13.07;12.67;;;13.20;99.90;;;;;;5069136;28;20502;-69
2023/10/14 09:38:18;;;;;;;13.20;12.80;;;13.40;99.90;;;;;;5080678;28;20462;-69
2023/10/14 09:40:53;;;;;;;13.27;12.87;;;13.40;99.90;;;;;;5090670;28;20506;-69
2023/10/14 09:43:23;;;;;;;13.00;12.60;;;13.50;99.90;;;;;;5072626;28;20909;-68
2023/10/14 09:45:55;;;;;;;13.63;13.23;;;13.50;99.90;;;;;;5082030;28;20749;-68
2023/10/14 09:48:24;;;;;;;12.80;12.40;;;13.40;99.90;;;;;;5079072;28;20458;-68
2023/10/14 09:50:54;;;;;;;13.13;12.73;;;13.50;99.90;;;;;;5075157;28;20557;-69
2023/10/14 09:53:26;;;;;;;13.13;12.73;;;13.50;99.90;;;;;;5072008;28;20463;-70
2023/10/14 09:55:55;;;;;;;13.10;12.70;;;13.50;99.90;;;;;;5076403;28;20462;-69
2023/10/14 09:58:25;;;;;;;13.10;12.70;;;13.70;99.90;;;;;;5079427;28;20955;-70
2023/10/14 10:00:53;;;;;;;13.43;13.03;;;14.00;99.90;;;;;;5075723;28;20548;-68
2023/10/14 10:03:22;;;;;;;13.43;13.03;;;13.90;99.90;;;;;;5082515;28;20920;-68
2023/10/14 10:06:00;;;;;;;13.47;13.07;;;14.00;99.90;;;;;;5067980;28;20467;-69
2023/10/14 10:08:53;;;;;;;12.70;12.30;;;13.90;99.90;;;;;;5084747;28;20465;-69
2023/10/14 10:11:24;;;;;;;14.30;13.80;;;14.20;99.90;;;;;;5071027;28;20459;-69
2023/10/14 10:13:52;;;;;;;13.83;13.43;;;14.70;99.90;;;;;;5070971;28;20499;-68
2023/10/14 10:16:21;;;;;;;13.60;13.20;;;15.20;99.90;;;;;;5073274;28;20458;-70
2023/10/14 10:18:53;;;;;;;13.50;13.10;;;15.70;99.90;;;;;;5084421;28;20458;-70
2023/10/14 10:21:20;;;;;;;13.50;13.10;;;15.70;99.90;;;;;;5076981;28;20455;-69
2023/10/14 10:23:51;;;;;;;13.43;13.03;;;15.30;99.90;;;;;;5074134;28;20494;-68
2023/10/14 10:26:19;;;;;;;13.90;13.50;;;14.80;99.90;;;;;;5080146;28;20810;-69
2023/10/14 10:28:47;;;;;;;13.90;13.50;;;14.50;99.90;;;;;;5086459;28;20456;-67
2023/10/14 10:31:17;;;;;;;14.10;13.60;;;14.10;99.90;;;;;;5076939;28;20451;-69
2023/10/14 10:33:55;;;;;;;13.30;12.90;;;14.00;99.90;;;;;;5075077;28;20804;-69
2023/10/14 10:36:25;;;;;;;12.27;11.97;;;14.20;99.90;;;;;;5073567;28;20487;-69
2023/10/14 10:38:54;;;;;;;13.80;13.40;;;15.10;99.90;;;;;;5084360;28;20458;-68
2023/10/14 10:41:27;;;;;;;13.43;13.03;;;15.80;99.90;;;;;;5078073;28;20463;-68
2023/10/14 10:44:02;;;;;;;13.70;13.30;;;16.10;99.90;;;;;;5076189;28;20477;-68
2023/10/14 10:46:37;;;;;;;13.30;12.90;;;16.10;99.90;;;;;;5080147;28;20529;-69
2023/10/14 10:49:06;;;;;;;13.30;12.90;;;16.60;99.90;;;;;;5071372;28;20556;-69
2023/10/14 10:51:35;;;;;;;13.00;12.60;;;16.80;99.90;;;;;;5070498;28;20554;-69
2023/10/14 10:54:04;;;;;;;13.10;12.70;;;17.10;99.90;;;;;;5075415;28;20577;-68
2023/10/14 10:56:34;;;;;;;13.60;13.20;;;17.60;99.90;;;;;;5071234;28;20462;-69
2023/10/14 10:59:04;;;;;;;13.63;13.23;;;17.90;99.90;;;;;;5080729;28;20462;-69
2023/10/14 11:01:32;;;;;;;13.17;12.77;;;18.10;99.90;;;;;;5075849;28;20486;-69
2023/10/14 11:04:00;;;;;;;13.70;13.30;;;16.80;99.90;;;;;;5075364;28;20563;-68
2023/10/14 11:06:30;;;;;;;13.20;12.80;;;16.30;99.90;;;;;;5076972;28;20459;-70
2023/10/14 11:08:58;;;;;;;13.10;12.70;;;16.40;99.90;;;;;;5078453;28;20502;-68
2023/10/14 11:11:30;;;;;;;13.40;13.00;;;17.10;99.90;;;;;;5077898;28;20853;-69
2023/10/14 11:14:00;;;;;;;13.40;13.00;;;17.60;99.90;;;;;;5076870;28;20455;-70
2023/10/14 11:16:29;;;;;;;13.40;13.00;;;18.20;99.90;;;;;;5073160;28;20459;-69
2023/10/14 11:18:56;;;;;;;14.37;13.87;;;18.00;99.90;;;;;;5073515;28;20973;-69
2023/10/14 11:21:27;;;;;;;14.20;13.70;;;17.60;99.90;;;;;;5081480;28;20804;-70
2023/10/14 11:23:55;;;;;;;13.73;13.33;;;17.30;99.90;;;;;;5075060;28;20585;-70
2023/10/14 11:26:24;;;;;;;14.20;13.70;;;17.40;99.90;;;;;;5072805;28;20461;-70
2023/10/14 11:28:51;;;;;;;13.87;13.47;;;17.60;99.90;;;;;;5079042;28;20457;-70
2023/10/14 11:31:24;;;;;;;14.70;14.20;;;17.60;99.90;;;;;;5079346;28;20797;-70
2023/10/14 11:33:55;;;;;;;15.10;14.60;;;17.50;99.90;;;;;;5077355;28;20458;-70
2023/10/14 11:36:26;;;;;;;14.60;14.17;;;17.50;99.90;;;;;;5082526;28;20485;-69
2023/10/14 11:38:58;;;;;;;15.80;15.30;;;17.50;99.90;;;;;;5072307;28;20499;-70
2023/10/14 11:41:27;;;;;;;15.47;14.97;;;17.10;99.90;;;;;;5088032;28;20456;-69
2023/10/14 11:43:54;;;;;;;15.10;14.60;;;16.90;99.90;;;;;;5081699;28;20498;-70
2023/10/14 11:46:21;;;;;;;15.13;14.63;;;17.50;99.90;;;;;;5075702;28;20478;-69
2023/10/14 11:48:48;;;;;;;15.50;15.00;;;17.50;99.90;;;;;;5082559;28;20457;-69
2023/10/14 11:51:21;;;;;;;15.87;15.37;;;16.80;99.90;;;;;;5077134;28;20876;-70
2023/10/14 11:53:53;;;;;;;15.00;14.50;;;16.10;99.90;;;;;;5078904;28;20451;-70
2023/10/14 11:56:20;;;;;;;14.27;13.87;;;16.00;99.90;;;;;;5081608;28;20461;-70
2023/10/14 11:58:49;;;;;;;14.80;14.30;;;16.40;99.90;;;;;;5076664;28;20828;-70
2023/10/14 12:01:16;;;;;;;14.93;14.43;;;16.40;99.90;;;;;;5083096;28;20839;-69
2023/10/14 12:03:44;;;;;;;14.53;14.03;;;15.90;99.90;;;;;;5067788;28;20509;-69
2023/10/14 12:06:13;;;;;;;14.30;13.83;;;16.00;99.90;;;;;;5077042;28;20527;-70
2023/10/14 12:08:42;;;;;;;13.90;13.50;;;15.80;99.90;;;;;;5075750;28;21025;-70
2023/10/14 12:11:09;;;;;;;13.90;13.50;;;16.30;99.90;;;;;;5082029;28;20458;-70
2023/10/14 12:13:37;;;;;;;14.77;14.27;;;16.70;99.90;;;;;;5075894;28;20463;-70
2023/10/14 12:16:06;;;;;;;14.20;13.80;;;17.30;99.90;;;;;;5076410;28;20494;-68
2023/10/14 12:18:36;;;;;;;13.80;13.40;;;17.70;99.90;;;;;;5077305;28;20462;-69
2023/10/14 12:21:03;;;;;;;14.00;13.60;;;17.60;99.90;;;;;;5080552;28;20960;-71
2023/10/14 12:23:31;;;;;;;14.00;13.60;;;17.20;99.90;;;;;;5065521;28;20494;-71
2023/10/14 12:26:00;;;;;;;13.70;13.30;;;16.80;99.90;;;;;;5072460;28;20463;-69
2023/10/14 12:28:30;;;;;;;14.03;13.63;;;17.10;99.90;;;;;;5082823;28;20530;-69
2023/10/14 12:31:00;;;;;;;13.70;13.30;;;17.50;99.90;;;;;;5071800;28;20471;-71
2023/10/14 12:33:31;;;;;;;14.70;14.20;;;18.00;99.90;;;;;;5072031;28;20466;-69
2023/10/14 12:35:58;;;;;;;14.80;14.30;;;17.90;99.90;;;;;;5081611;28;20470;-69
2023/10/14 12:38:27;;;;;;;14.97;14.47;;;17.00;99.90;;;;;;5079881;28;20474;-69
2023/10/14 12:40:55;;;;;;;14.77;14.27;;;16.50;99.90;;;;;;5071949;28;20540;-69
2023/10/14 12:43:28;;;;;;;14.87;14.37;;;16.10;99.90;;;;;;5076878;28;20482;-69
2023/10/14 12:46:09;;;;;;;14.77;14.27;;;15.90;99.90;;;;;;5081076;28;20868;-69
2023/10/14 12:48:39;;;;;;;14.30;13.80;;;15.60;99.90;;;;;;5065521;28;20505;-68
2023/10/14 12:51:11;;;;;;;13.80;13.40;;;15.40;99.90;;;;;;5067812;28;20893;-68
2023/10/14 12:53:38;;;;;;;13.30;12.90;;;15.30;99.90;;;;;;5080288;28;20885;-69
2023/10/14 12:56:09;;;;;;;13.80;13.40;;;15.80;99.90;;;;;;5074424;28;20468;-69
2023/10/14 12:58:37;;;;;;;13.87;13.47;;;16.60;99.90;;;;;;5074447;28;21272;-68
2023/10/14 13:01:13;;;;;;;14.30;13.90;;;16.80;99.90;;;;;;5067727;28;20933;-70
2023/10/14 13:03:42;;;;;;;15.30;14.80;;;17.20;99.90;;;;;;5080858;28;20486;-69